PAY6660 KIAD-KMEM
Flight info
| Callsign | PAY6660 |
|---|---|
| Flight time | N/A |
| Altitude | 34000 |
| Route | RNLDI4 OTTTO Q80 FAREV RAMRD BLUZZ5 |
| Aircraft | B77L/H-SDE1E2E3FGHIJ2J3J4J5M1RWXY/LB1D1 |
Departure
| Time | N/A |
|---|---|
| Airport | Washington Dulles International Airport (KIAD) |
Arrival
| Time | 2026-05-03 21:13 |
|---|---|
| Airport | Memphis International Airport (KMEM) |
| Time | Latitude | Longitude | Altitude | Speed | Heading |
|---|---|---|---|---|---|
| 2026-05-03 20:15 | 37.63150 | -83.75102 | 34136 ft | 424 kts | 254° |
| 2026-05-03 20:15 | 37.61109 | -83.82073 | 34132 ft | 424 kts | 254° |
| 2026-05-03 20:16 | 37.59064 | -83.89043 | 34128 ft | 424 kts | 254° |
| 2026-05-03 20:16 | 37.57014 | -83.96007 | 34132 ft | 424 kts | 253° |
| 2026-05-03 20:17 | 37.54958 | -84.02978 | 34139 ft | 424 kts | 253° |
| 2026-05-03 20:17 | 37.52898 | -84.09941 | 34133 ft | 424 kts | 253° |
| 2026-05-03 20:18 | 37.50835 | -84.16903 | 34138 ft | 424 kts | 253° |
| 2026-05-03 20:18 | 37.48765 | -84.23869 | 34145 ft | 425 kts | 253° |
| 2026-05-03 20:19 | 37.46632 | -84.30827 | 34143 ft | 426 kts | 252° |
| 2026-05-03 20:19 | 37.44433 | -84.37762 | 34138 ft | 427 kts | 252° |
| 2026-05-03 20:20 | 37.42232 | -84.44708 | 34145 ft | 428 kts | 252° |
| 2026-05-03 20:20 | 37.40034 | -84.51659 | 34137 ft | 427 kts | 252° |
| 2026-05-03 20:21 | 37.37838 | -84.58602 | 34137 ft | 428 kts | 252° |
| 2026-05-03 20:21 | 37.35634 | -84.65549 | 34143 ft | 428 kts | 252° |
| 2026-05-03 20:22 | 37.33420 | -84.72508 | 34143 ft | 429 kts | 252° |
| 2026-05-03 20:22 | 37.31208 | -84.79471 | 34142 ft | 429 kts | 252° |
| 2026-05-03 20:23 | 37.29010 | -84.86436 | 34148 ft | 429 kts | 252° |
| 2026-05-03 20:23 | 37.26821 | -84.93360 | 34153 ft | 429 kts | 252° |
| 2026-05-03 20:24 | 37.24610 | -85.00330 | 34159 ft | 430 kts | 252° |
| 2026-05-03 20:24 | 37.22394 | -85.07297 | 34155 ft | 430 kts | 252° |
| 2026-05-03 20:25 | 37.20331 | -85.14328 | 34157 ft | 428 kts | 258° |
| 2026-05-03 20:25 | 37.18902 | -85.21573 | 34154 ft | 428 kts | 259° |
| 2026-05-03 20:26 | 37.17412 | -85.28802 | 34163 ft | 428 kts | 258° |
| 2026-05-03 20:26 | 37.15905 | -85.36034 | 34163 ft | 429 kts | 258° |
| 2026-05-03 20:27 | 37.14399 | -85.43273 | 34167 ft | 430 kts | 258° |
| 2026-05-03 20:27 | 37.12887 | -85.50525 | 34157 ft | 430 kts | 258° |
| 2026-05-03 20:28 | 37.11375 | -85.57760 | 34151 ft | 430 kts | 258° |
| 2026-05-03 20:28 | 37.09854 | -85.65009 | 34148 ft | 430 kts | 258° |
| 2026-05-03 20:29 | 37.08328 | -85.72261 | 34149 ft | 431 kts | 258° |
| 2026-05-03 20:29 | 37.07057 | -85.78287 | 34145 ft | 431 kts | 258° |
| 2026-05-03 20:30 | 37.05521 | -85.85542 | 34145 ft | 431 kts | 258° |
| 2026-05-03 20:30 | 37.03980 | -85.92797 | 34150 ft | 432 kts | 258° |
| 2026-05-03 20:31 | 37.02430 | -86.00074 | 34144 ft | 433 kts | 258° |
| 2026-05-03 20:31 | 37.00876 | -86.07346 | 34147 ft | 433 kts | 258° |
| 2026-05-03 20:32 | 36.99316 | -86.14615 | 34149 ft | 433 kts | 258° |
| 2026-05-03 20:32 | 36.97751 | -86.21897 | 34154 ft | 434 kts | 258° |
| 2026-05-03 20:33 | 36.96179 | -86.29176 | 34156 ft | 434 kts | 258° |
| 2026-05-03 20:33 | 36.94602 | -86.36468 | 34154 ft | 435 kts | 258° |
| 2026-05-03 20:34 | 36.92847 | -86.43716 | 34150 ft | 438 kts | 252° |
| 2026-05-03 20:34 | 36.90176 | -86.50605 | 34159 ft | 443 kts | 245° |
| 2026-05-03 20:35 | 36.87189 | -86.57280 | 34154 ft | 444 kts | 246° |
| 2026-05-03 20:35 | 36.84210 | -86.64031 | 34153 ft | 443 kts | 246° |
| 2026-05-03 20:36 | 36.81235 | -86.70778 | 34150 ft | 444 kts | 246° |
| 2026-05-03 20:36 | 36.78250 | -86.77535 | 34149 ft | 445 kts | 246° |
| 2026-05-03 20:37 | 36.75253 | -86.84299 | 34144 ft | 446 kts | 246° |
| 2026-05-03 20:37 | 36.72249 | -86.91061 | 34143 ft | 446 kts | 245° |
| 2026-05-03 20:38 | 36.69238 | -86.97828 | 34141 ft | 447 kts | 245° |
| 2026-05-03 20:38 | 36.66217 | -87.04602 | 34141 ft | 447 kts | 245° |
| 2026-05-03 20:39 | 36.63191 | -87.11373 | 34141 ft | 448 kts | 245° |
| 2026-05-03 20:39 | 36.60153 | -87.18161 | 34145 ft | 449 kts | 245° |
| 2026-05-03 20:40 | 36.57107 | -87.24950 | 34144 ft | 449 kts | 245° |
| 2026-05-03 20:40 | 36.54059 | -87.31730 | 34143 ft | 449 kts | 245° |
| 2026-05-03 20:41 | 36.51002 | -87.38515 | 34156 ft | 450 kts | 245° |
| 2026-05-03 20:41 | 36.47937 | -87.45304 | 34154 ft | 451 kts | 245° |
| 2026-05-03 20:42 | 36.44862 | -87.52104 | 34152 ft | 452 kts | 245° |
| 2026-05-03 20:42 | 36.41777 | -87.58910 | 34150 ft | 453 kts | 245° |
| 2026-05-03 20:43 | 36.38682 | -87.65724 | 34156 ft | 454 kts | 245° |
| 2026-05-03 20:43 | 36.37147 | -87.69095 | 34138 ft | 441 kts | 245° |
| 2026-05-03 20:43 | 36.35684 | -87.72301 | 34137 ft | 425 kts | 245° |
| 2026-05-03 20:43 | 36.34252 | -87.75442 | 34137 ft | 413 kts | 245° |
| 2026-05-03 20:44 | 36.32842 | -87.78538 | 34146 ft | 413 kts | 245° |
| 2026-05-03 20:44 | 36.29997 | -87.84779 | 34114 ft | 415 kts | 245° |
| 2026-05-03 20:44 | 36.28569 | -87.87895 | 33737 ft | 414 kts | 245° |
| 2026-05-03 20:45 | 36.27152 | -87.90983 | 33313 ft | 410 kts | 245° |
| 2026-05-03 20:45 | 36.25751 | -87.94034 | 32868 ft | 405 kts | 245° |
| 2026-05-03 20:45 | 36.24362 | -87.97057 | 32376 ft | 402 kts | 245° |
| 2026-05-03 20:45 | 36.22987 | -88.00051 | 31923 ft | 398 kts | 245° |
| 2026-05-03 20:46 | 36.21622 | -88.03023 | 31451 ft | 395 kts | 245° |
| 2026-05-03 20:46 | 36.20267 | -88.05968 | 30999 ft | 392 kts | 245° |
| 2026-05-03 20:46 | 36.18921 | -88.08893 | 30551 ft | 390 kts | 245° |
| 2026-05-03 20:46 | 36.17584 | -88.11798 | 30086 ft | 387 kts | 245° |
| 2026-05-03 20:47 | 36.16253 | -88.14685 | 29559 ft | 385 kts | 245° |
| 2026-05-03 20:47 | 36.14933 | -88.17546 | 29102 ft | 381 kts | 245° |
| 2026-05-03 20:47 | 36.13621 | -88.20385 | 28642 ft | 378 kts | 245° |
| 2026-05-03 20:47 | 36.12322 | -88.23195 | 28193 ft | 375 kts | 245° |
| 2026-05-03 20:48 | 36.11068 | -88.25909 | 27766 ft | 372 kts | 245° |
| 2026-05-03 20:48 | 36.09787 | -88.28678 | 27330 ft | 370 kts | 245° |
| 2026-05-03 20:48 | 36.08529 | -88.31390 | 26892 ft | 367 kts | 245° |
| 2026-05-03 20:48 | 36.07264 | -88.34117 | 26458 ft | 365 kts | 245° |
| 2026-05-03 20:49 | 36.06004 | -88.36830 | 26045 ft | 363 kts | 245° |
| 2026-05-03 20:49 | 36.04743 | -88.39541 | 25639 ft | 365 kts | 244° |
| 2026-05-03 20:49 | 36.03470 | -88.42279 | 25219 ft | 370 kts | 244° |
| 2026-05-03 20:49 | 36.02181 | -88.45051 | 24786 ft | 372 kts | 244° |
| 2026-05-03 20:50 | 36.00893 | -88.47816 | 24363 ft | 371 kts | 244° |
| 2026-05-03 20:50 | 35.99606 | -88.50574 | 23927 ft | 370 kts | 244° |
| 2026-05-03 20:50 | 35.98324 | -88.53318 | 23456 ft | 369 kts | 244° |
| 2026-05-03 20:50 | 35.97044 | -88.56057 | 22990 ft | 367 kts | 244° |
| 2026-05-03 20:51 | 35.95773 | -88.58777 | 22545 ft | 365 kts | 244° |
| 2026-05-03 20:51 | 35.94511 | -88.61474 | 22131 ft | 362 kts | 244° |
| 2026-05-03 20:51 | 35.93255 | -88.64153 | 21712 ft | 359 kts | 244° |
| 2026-05-03 20:51 | 35.92008 | -88.66815 | 21302 ft | 357 kts | 244° |
| 2026-05-03 20:52 | 35.90768 | -88.69461 | 20891 ft | 355 kts | 244° |
| 2026-05-03 20:52 | 35.89537 | -88.72087 | 20482 ft | 353 kts | 244° |
| 2026-05-03 20:52 | 35.88311 | -88.74699 | 20086 ft | 351 kts | 244° |
| 2026-05-03 20:52 | 35.87088 | -88.77302 | 19689 ft | 350 kts | 244° |
| 2026-05-03 20:53 | 35.85872 | -88.79885 | 19289 ft | 348 kts | 244° |
| 2026-05-03 20:53 | 35.84659 | -88.82462 | 18881 ft | 347 kts | 244° |
| 2026-05-03 20:53 | 35.83452 | -88.85029 | 18467 ft | 346 kts | 244° |
| 2026-05-03 20:53 | 35.82241 | -88.87601 | 17896 ft | 348 kts | 244° |
| 2026-05-03 20:54 | 35.81030 | -88.90177 | 17455 ft | 346 kts | 244° |
| 2026-05-03 20:54 | 35.78624 | -88.95268 | 16626 ft | 342 kts | 244° |
| 2026-05-03 20:54 | 35.77430 | -88.97790 | 16209 ft | 340 kts | 244° |
| 2026-05-03 20:55 | 35.76251 | -89.00290 | 15823 ft | 337 kts | 244° |
| 2026-05-03 20:55 | 35.75073 | -89.02778 | 15426 ft | 335 kts | 243° |
| 2026-05-03 20:55 | 35.73901 | -89.05242 | 15032 ft | 333 kts | 243° |
| 2026-05-03 20:55 | 35.72696 | -89.07657 | 14648 ft | 329 kts | 237° |
| 2026-05-03 20:56 | 35.71195 | -89.09795 | 14266 ft | 330 kts | 229° |
| 2026-05-03 20:56 | 35.69575 | -89.11788 | 13883 ft | 329 kts | 228° |
| 2026-05-03 20:56 | 35.67954 | -89.13760 | 13475 ft | 327 kts | 228° |
| 2026-05-03 20:56 | 35.66359 | -89.15742 | 13070 ft | 325 kts | 229° |
| 2026-05-03 20:57 | 35.64792 | -89.17727 | 12688 ft | 322 kts | 229° |
| 2026-05-03 20:57 | 35.63253 | -89.19707 | 12299 ft | 319 kts | 229° |
| 2026-05-03 20:57 | 35.61731 | -89.21676 | 11952 ft | 317 kts | 229° |
| 2026-05-03 20:57 | 35.60209 | -89.23639 | 11593 ft | 318 kts | 229° |
| 2026-05-03 20:58 | 35.58738 | -89.25678 | 11207 ft | 321 kts | 233° |
| 2026-05-03 20:58 | 35.57331 | -89.27816 | 10851 ft | 322 kts | 234° |
| 2026-05-03 20:58 | 35.55936 | -89.29954 | 10594 ft | 317 kts | 233° |
| 2026-05-03 20:58 | 35.54599 | -89.31990 | 10398 ft | 293 kts | 233° |
| 2026-05-03 20:59 | 35.53368 | -89.33841 | 10268 ft | 270 kts | 233° |
| 2026-05-03 20:59 | 35.52203 | -89.35582 | 10171 ft | 258 kts | 233° |
| 2026-05-03 20:59 | 35.51083 | -89.37247 | 10058 ft | 253 kts | 234° |
| 2026-05-03 20:59 | 35.49991 | -89.38888 | 9978 ft | 263 kts | 234° |
| 2026-05-03 21:00 | 35.48968 | -89.40745 | 9734 ft | 264 kts | 244° |
| 2026-05-03 21:00 | 35.48693 | -89.41391 | 9666 ft | 263 kts | 246° |
| 2026-05-03 21:00 | 35.47389 | -89.44782 | 9283 ft | 261 kts | 248° |
| 2026-05-03 21:00 | 35.46631 | -89.46776 | 9078 ft | 255 kts | 248° |
| 2026-05-03 21:01 | 35.45881 | -89.48739 | 8845 ft | 254 kts | 247° |
| 2026-05-03 21:01 | 35.45126 | -89.50688 | 8673 ft | 253 kts | 247° |
| 2026-05-03 21:01 | 35.44356 | -89.52645 | 8428 ft | 255 kts | 246° |
| 2026-05-03 21:01 | 35.43600 | -89.54561 | 8214 ft | 252 kts | 246° |
| 2026-05-03 21:02 | 35.42836 | -89.56493 | 8025 ft | 252 kts | 246° |
| 2026-05-03 21:02 | 35.42075 | -89.58415 | 7802 ft | 249 kts | 246° |
| 2026-05-03 21:02 | 35.41319 | -89.60316 | 7581 ft | 247 kts | 246° |
| 2026-05-03 21:02 | 35.40568 | -89.62202 | 7385 ft | 245 kts | 246° |
| 2026-05-03 21:03 | 35.39823 | -89.64081 | 7202 ft | 245 kts | 247° |
| 2026-05-03 21:03 | 35.39071 | -89.65966 | 6992 ft | 246 kts | 246° |
| 2026-05-03 21:03 | 35.38328 | -89.67843 | 6767 ft | 244 kts | 246° |
| 2026-05-03 21:03 | 35.37577 | -89.69706 | 6556 ft | 244 kts | 246° |
| 2026-05-03 21:04 | 35.36825 | -89.71568 | 6350 ft | 243 kts | 246° |
| 2026-05-03 21:04 | 35.36084 | -89.73402 | 6132 ft | 239 kts | 246° |
| 2026-05-03 21:04 | 35.35357 | -89.75222 | 5940 ft | 237 kts | 246° |
| 2026-05-03 21:04 | 35.34634 | -89.77036 | 5751 ft | 238 kts | 246° |
| 2026-05-03 21:05 | 35.33916 | -89.78867 | 5561 ft | 237 kts | 247° |
| 2026-05-03 21:05 | 35.33203 | -89.80687 | 5340 ft | 237 kts | 245° |
| 2026-05-03 21:05 | 35.32474 | -89.82466 | 5136 ft | 229 kts | 245° |
| 2026-05-03 21:05 | 35.31805 | -89.84217 | 4932 ft | 226 kts | 246° |
| 2026-05-03 21:06 | 35.31185 | -89.85745 | 4800 ft | 224 kts | 245° |
| 2026-05-03 21:06 | 35.30462 | -89.87477 | 4610 ft | 221 kts | 245° |
| 2026-05-03 21:06 | 35.29774 | -89.89159 | 4385 ft | 221 kts | 246° |
| 2026-05-03 21:06 | 35.29119 | -89.90819 | 4236 ft | 214 kts | 243° |
| 2026-05-03 21:07 | 35.28438 | -89.92456 | 4019 ft | 218 kts | 242° |
| 2026-05-03 21:07 | 35.27738 | -89.94129 | 3856 ft | 226 kts | 243° |
| 2026-05-03 21:07 | 35.27050 | -89.95843 | 3663 ft | 218 kts | 240° |
| 2026-05-03 21:07 | 35.26121 | -89.97186 | 3456 ft | 200 kts | 208° |
| 2026-05-03 21:08 | 35.24799 | -89.97497 | 3315 ft | 194 kts | 176° |
| 2026-05-03 21:08 | 35.23443 | -89.97418 | 3239 ft | 200 kts | 189° |
| 2026-05-03 21:08 | 35.22032 | -89.97614 | 3114 ft | 207 kts | 185° |
| 2026-05-03 21:08 | 35.20578 | -89.97634 | 3031 ft | 208 kts | 182° |
| 2026-05-03 21:09 | 35.19194 | -89.97632 | 3010 ft | 192 kts | 183° |
| 2026-05-03 21:09 | 35.17892 | -89.97590 | 2855 ft | 187 kts | 181° |
| 2026-05-03 21:09 | 35.16604 | -89.97543 | 2621 ft | 184 kts | 181° |
| 2026-05-03 21:09 | 35.15350 | -89.97511 | 2404 ft | 174 kts | 181° |
| 2026-05-03 21:10 | 35.14157 | -89.97491 | 2147 ft | 170 kts | 182° |
| 2026-05-03 21:10 | 35.12988 | -89.97468 | 1914 ft | 164 kts | 182° |
| 2026-05-03 21:10 | 35.11899 | -89.97442 | 1736 ft | 154 kts | 182° |
| 2026-05-03 21:10 | 35.10859 | -89.97420 | 1509 ft | 144 kts | 181° |
| 2026-05-03 21:11 | 35.09865 | -89.97399 | 1306 ft | 143 kts | 182° |
| 2026-05-03 21:11 | 35.08876 | -89.97377 | 1127 ft | 147 kts | 185° |
| 2026-05-03 21:11 | 35.07827 | -89.97358 | 937 ft | 153 kts | 182° |
| 2026-05-03 21:11 | 35.07105 | -89.97341 | 750 ft | 151 kts | 180° |
| 2026-05-03 21:12 | 35.05937 | -89.97314 | 542 ft | 152 kts | 183° |
| 2026-05-03 21:12 | 35.04877 | -89.97285 | 375 ft | 153 kts | 182° |
| 2026-05-03 21:12 | 35.03872 | -89.97271 | 332 ft | 125 kts | 179° |
| 2026-05-03 21:12 | 35.03234 | -89.97256 | 332 ft | 58 kts | 179° |
| 2026-05-03 21:13 | 35.02962 | -89.97248 | 332 ft | 37 kts | 180° |
| 2026-05-03 21:13 | 35.02678 | -89.97242 | 331 ft | 30 kts | 176° |
| 2026-05-03 21:13 | 35.02573 | -89.97112 | 331 ft | 24 kts | 82° |
| 2026-05-03 21:13 | 35.02708 | -89.97029 | 332 ft | 24 kts | 357° |
| 2026-05-03 21:14 | 35.02873 | -89.97064 | 331 ft | 24 kts | 350° |
| 2026-05-03 21:14 | 35.03041 | -89.97076 | 332 ft | 24 kts | 359° |
| 2026-05-03 21:14 | 35.03208 | -89.97080 | 332 ft | 24 kts | 359° |
| 2026-05-03 21:14 | 35.03376 | -89.97083 | 333 ft | 24 kts | 359° |
| 2026-05-03 21:15 | 35.03544 | -89.97086 | 333 ft | 24 kts | 358° |
| 2026-05-03 21:15 | 35.03711 | -89.97091 | 333 ft | 24 kts | 358° |
| 2026-05-03 21:15 | 35.03879 | -89.97094 | 332 ft | 24 kts | 359° |
| 2026-05-03 21:15 | 35.04047 | -89.97099 | 332 ft | 24 kts | 358° |
| 2026-05-03 21:16 | 35.04214 | -89.97100 | 329 ft | 24 kts | 360° |
| 2026-05-03 21:16 | 35.04380 | -89.97081 | 332 ft | 24 kts | 11° |
| 2026-05-03 21:16 | 35.04490 | -89.97063 | 332 ft | 24 kts | 1° |
| 2026-05-03 21:16 | 35.04658 | -89.97065 | 332 ft | 24 kts | 359° |
| 2026-05-03 21:17 | 35.04825 | -89.97068 | 331 ft | 24 kts | 359° |
| 2026-05-03 21:17 | 35.04993 | -89.97068 | 331 ft | 24 kts | 0° |
| 2026-05-03 21:17 | 35.05159 | -89.97042 | 332 ft | 24 kts | 9° |
| 2026-05-03 21:17 | 35.05324 | -89.97012 | 332 ft | 24 kts | 8° |
| 2026-05-03 21:18 | 35.05489 | -89.96977 | 332 ft | 24 kts | 8° |
| 2026-05-03 21:18 | 35.05636 | -89.96951 | 332 ft | 16 kts | 8° |
| 2026-05-03 21:18 | 35.05746 | -89.96932 | 331 ft | 16 kts | 10° |
| 2026-05-03 21:18 | 35.05845 | -89.96912 | 330 ft | 11 kts | 7° |
| 2026-05-03 21:19 | 35.05905 | -89.96927 | 333 ft | 9 kts | 332° |
| 2026-05-03 21:19 | 35.05960 | -89.96942 | 332 ft | 6 kts | 359° |
| 2026-05-03 21:19 | 35.05992 | -89.96942 | 332 ft | 3 kts | 0° |
| 2026-05-03 21:19 | 35.05997 | -89.96942 | 331 ft | 0 kts | 0° |